Time;durP1;ratioP1;P1;durP2;ratioP2;P2;SDS_P1;SDS_P2;PMS_P1;PMS_P2;Temp;Humidity;BMP_temperature;BMP_pressure;BME280_temperature;BME280_humidity;BME280_pressure;Samples;Min_cycle;Max_cycle;Signal;HPM_P1;HPM_P2
2021/12/29 00:01:46;;;;;;;16.90;4.88;;;6.60;99.90;;;;;;4267518;27;20047;-86
2021/12/29 00:03:48;;;;;;;14.80;4.60;;;6.70;99.90;;;;;;4266700;27;20050;-86
2021/12/29 00:05:49;;;;;;;15.85;4.40;;;7.20;99.90;;;;;;4248573;27;20157;-86
2021/12/29 00:07:50;;;;;;;13.45;4.38;;;6.60;99.90;;;;;;4266677;27;20053;-86
2021/12/29 00:09:51;;;;;;;14.60;4.72;;;7.40;99.90;;;;;;4248285;27;20086;-86
2021/12/29 00:11:52;;;;;;;13.88;4.70;;;7.50;99.90;;;;;;4231510;28;20039;-86
2021/12/29 00:13:53;;;;;;;13.98;4.40;;;6.50;99.90;;;;;;4266810;27;20078;-86
2021/12/29 00:15:58;;;;;;;8.43;4.50;;;7.50;99.90;;;;;;4266509;27;20455;-86
2021/12/29 00:17:59;;;;;;;8.43;3.97;;;7.50;99.90;;;;;;4230837;28;20054;-86
2021/12/29 00:20:00;;;;;;;7.95;3.75;;;7.10;99.90;;;;;;4248461;27;20043;-86
2021/12/29 00:22:00;;;;;;;7.22;3.40;;;7.20;99.90;;;;;;4248740;27;20047;-86
2021/12/29 00:24:04;;;;;;;9.85;3.53;;;6.50;99.90;;;;;;4231600;28;20048;-85
2021/12/29 00:26:05;;;;;;;8.95;3.92;;;6.40;99.90;;;;;;4267054;27;20047;-85
2021/12/29 00:28:06;;;;;;;8.35;3.33;;;6.50;99.90;;;;;;4266799;27;20161;-86
2021/12/29 00:30:10;;;;;;;7.40;3.55;;;6.80;99.90;;;;;;4248322;27;20438;-86
2021/12/29 00:32:11;;;;;;;7.35;3.33;;;6.40;99.90;;;;;;4266462;27;20038;-86
2021/12/29 00:34:12;;;;;;;8.15;3.70;;;6.80;99.90;;;;;;4267040;27;20035;-86
2021/12/29 00:36:13;;;;;;;7.88;3.78;;;6.90;99.90;;;;;;4267373;27;20042;-87
2021/12/29 00:38:15;;;;;;;8.30;3.60;;;6.40;99.90;;;;;;4266575;27;20107;-86
2021/12/29 00:40:17;;;;;;;10.18;3.70;;;6.40;99.90;;;;;;4266485;27;20411;-86
2021/12/29 00:42:19;;;;;;;9.90;3.67;;;6.40;99.90;;;;;;4267050;27;20050;-85
2021/12/29 00:44:21;;;;;;;6.43;3.15;;;7.60;99.90;;;;;;4266699;27;20038;-86
2021/12/29 00:46:23;;;;;;;7.82;3.13;;;7.50;99.90;;;;;;4247851;27;20035;-86
2021/12/29 00:48:34;;;;;;;8.68;3.63;;;6.30;99.90;;;;;;4247958;27;20094;-85
2021/12/29 00:50:34;;;;;;;12.25;3.53;;;6.70;99.90;;;;;;4266672;27;20517;-85
2021/12/29 00:52:36;;;;;;;6.80;3.20;;;7.30;99.90;;;;;;4266464;27;20090;-85
2021/12/29 00:54:39;;;;;;;7.78;3.30;;;6.70;99.90;;;;;;4247782;27;20047;-85
2021/12/29 00:56:40;;;;;;;8.85;3.17;;;6.70;99.90;;;;;;4266389;27;20509;-85
2021/12/29 00:58:43;;;;;;;9.07;3.38;;;7.60;99.90;;;;;;4266730;27;20039;-86
2021/12/29 01:00:44;;;;;;;9.38;3.40;;;6.90;99.90;;;;;;4265370;27;20058;-86
2021/12/29 01:02:46;;;;;;;7.80;3.42;;;6.30;99.90;;;;;;4266138;27;20125;-85
2021/12/29 01:04:47;;;;;;;17.10;3.60;;;7.50;99.90;;;;;;4265700;27;20046;-85
2021/12/29 01:06:48;;;;;;;8.70;3.25;;;6.90;99.90;;;;;;4247523;27;20055;-85
2021/12/29 01:08:49;;;;;;;9.55;3.80;;;6.50;99.90;;;;;;4264468;27;20570;-85
2021/12/29 01:10:50;;;;;;;15.13;3.85;;;7.00;99.90;;;;;;4247687;27;20051;-85
2021/12/29 01:12:57;;;;;;;13.77;3.50;;;6.30;99.90;;;;;;4247353;27;20506;-85
2021/12/29 01:14:58;;;;;;;9.88;3.38;;;7.10;99.90;;;;;;4247594;27;20046;-84
2021/12/29 01:16:59;;;;;;;11.48;3.35;;;6.30;99.90;;;;;;4247396;27;20046;-85
2021/12/29 01:19:12;;;;;;;16.20;3.60;;;6.30;99.90;;;;;;4247376;27;20058;-85
2021/12/29 01:21:13;;;;;;;18.10;5.32;;;6.90;99.90;;;;;;4247599;27;20058;-85
2021/12/29 01:23:14;;;;;;;16.17;3.97;;;6.30;99.90;;;;;;4264894;27;20422;-85
2021/12/29 01:25:15;;;;;;;11.60;3.95;;;6.30;99.90;;;;;;4246958;27;20116;-85
2021/12/29 01:27:16;;;;;;;14.75;3.80;;;7.20;99.90;;;;;;4247041;27;20089;-85
2021/12/29 01:29:17;;;;;;;16.20;4.47;;;6.30;99.90;;;;;;4247083;27;20070;-85
2021/12/29 01:31:18;;;;;;;14.80;3.75;;;6.30;99.90;;;;;;4247078;27;20494;-85
2021/12/29 01:33:20;;;;;;;14.63;4.22;;;6.30;99.90;;;;;;4264769;27;20114;-85
2021/12/29 01:35:21;;;;;;;13.00;4.40;;;7.40;99.90;;;;;;4265483;27;20403;-85
2021/12/29 01:37:22;;;;;;;19.38;4.45;;;7.60;99.90;;;;;;4265097;27;20042;-85
2021/12/29 01:39:23;;;;;;;19.77;5.25;;;6.40;99.90;;;;;;4246479;27;20507;-84
2021/12/29 01:41:25;;;;;;;14.52;4.05;;;7.50;99.90;;;;;;4265253;27;20051;-85
2021/12/29 01:43:27;;;;;;;16.38;5.70;;;6.40;99.90;;;;;;4246435;27;20111;-85
2021/12/29 01:45:28;;;;;;;20.13;6.15;;;6.40;99.90;;;;;;4247035;27;20490;-85
2021/12/29 01:47:30;;;;;;;15.30;4.65;;;6.40;99.90;;;;;;4246607;27;20035;-85
2021/12/29 01:49:31;;;;;;;16.67;5.22;;;7.00;99.90;;;;;;4265074;27;20424;-85
2021/12/29 01:51:34;;;;;;;22.00;5.00;;;6.40;99.90;;;;;;4264896;27;20034;-85
2021/12/29 01:53:36;;;;;;;18.05;4.78;;;6.80;99.90;;;;;;4246486;27;20054;-85
2021/12/29 01:55:39;;;;;;;17.08;5.18;;;7.20;99.90;;;;;;4229402;28;20118;-85
2021/12/29 01:57:41;;;;;;;16.98;5.35;;;6.60;99.90;;;;;;4267146;27;20054;-85
2021/12/29 01:59:41;;;;;;;21.70;5.45;;;6.90;99.90;;;;;;4248862;27;20104;-85
2021/12/29 02:01:43;;;;;;;16.55;5.00;;;7.30;99.90;;;;;;4249417;27;20130;-85
2021/12/29 02:03:45;;;;;;;22.30;4.90;;;7.30;99.90;;;;;;4230990;28;20427;-86
2021/12/29 02:05:47;;;;;;;23.83;5.07;;;7.50;99.90;;;;;;4246666;27;20043;-86
2021/12/29 02:07:48;;;;;;;19.98;5.68;;;6.40;99.90;;;;;;4229678;28;20495;-86
2021/12/29 02:09:48;;;;;;;27.30;5.43;;;7.70;99.90;;;;;;4264440;27;20046;-85
2021/12/29 02:11:50;;;;;;;22.83;5.05;;;5.70;99.90;;;;;;4264982;27;20375;-86
2021/12/29 02:13:52;;;;;;;17.52;6.13;;;6.50;99.90;;;;;;4246310;27;20086;-85
2021/12/29 02:15:53;;;;;;;18.35;5.07;;;6.50;99.90;;;;;;4229119;28;20083;-85
2021/12/29 02:17:54;;;;;;;21.38;6.50;;;7.20;99.90;;;;;;4246221;27;20534;-85
2021/12/29 02:19:59;;;;;;;23.08;6.88;;;7.20;99.90;;;;;;4245584;27;20043;-85
2021/12/29 02:22:09;;;;;;;20.55;6.60;;;6.60;99.90;;;;;;4264738;27;20042;-85
2021/12/29 02:26:13;;;;;;;20.13;6.32;;;6.50;99.90;;;;;;4246058;27;20077;-85
2021/12/29 02:28:34;;;;;;;22.88;5.90;;;6.50;99.90;;;;;;4245837;27;20043;-85
2021/12/29 02:30:35;;;;;;;23.50;6.50;;;6.60;99.90;;;;;;4228881;28;20373;-85
2021/12/29 02:32:36;;;;;;;21.75;7.90;;;7.40;99.90;;;;;;4264229;27;20115;-85
2021/12/29 02:34:37;;;;;;;23.75;7.70;;;7.40;99.90;;;;;;4245831;27;20488;-85
2021/12/29 02:36:43;;;;;;;23.60;6.25;;;7.20;99.90;;;;;;4264114;27;20039;-85
2021/12/29 02:38:49;;;;;;;15.88;5.95;;;6.60;99.90;;;;;;4246006;27;20051;-85
2021/12/29 02:40:53;;;;;;;17.08;5.38;;;6.70;99.90;;;;;;4245575;27;20130;-85
2021/12/29 02:42:54;;;;;;;15.10;5.07;;;6.70;99.90;;;;;;4245231;27;20043;-86
2021/12/29 02:44:55;;;;;;;20.63;5.07;;;6.70;99.90;;;;;;4228779;28;20158;-85
2021/12/29 02:46:57;;;;;;;17.90;5.53;;;6.70;99.90;;;;;;4228926;28;20051;-85
2021/12/29 02:49:02;;;;;;;14.40;4.60;;;7.10;99.90;;;;;;4245732;27;20118;-85
2021/12/29 02:51:07;;;;;;;10.52;4.00;;;7.30;99.90;;;;;;4264167;27;20074;-85
2021/12/29 02:53:09;;;;;;;18.58;4.47;;;7.50;99.90;;;;;;4264173;27;20034;-85
2021/12/29 02:55:11;;;;;;;18.23;3.70;;;6.70;99.90;;;;;;4228027;28;20044;-85
2021/12/29 02:57:12;;;;;;;12.18;3.90;;;7.50;99.90;;;;;;4246094;27;20550;-85
2021/12/29 02:59:13;;;;;;;19.02;3.92;;;7.00;99.90;;;;;;4264765;27;20053;-85
2021/12/29 03:01:16;;;;;;;11.30;3.38;;;7.40;99.90;;;;;;4264462;27;20035;-85
2021/12/29 03:03:21;;;;;;;12.57;3.85;;;6.70;99.90;;;;;;4229335;28;20146;-85
2021/12/29 03:05:25;;;;;;;10.18;3.47;;;6.70;99.90;;;;;;4264173;27;20137;-86
2021/12/29 03:07:25;;;;;;;10.48;3.47;;;6.70;99.90;;;;;;4264756;27;20039;-85
2021/12/29 03:09:27;;;;;;;12.07;3.28;;;6.70;99.90;;;;;;4244551;28;20043;-86
2021/12/29 03:11:27;;;;;;;13.13;3.65;;;7.50;99.90;;;;;;4246375;28;20074;-86
2021/12/29 03:13:34;;;;;;;12.13;3.42;;;6.40;99.90;;;;;;4264889;27;20042;-86
2021/12/29 03:15:36;;;;;;;12.98;3.90;;;7.30;99.90;;;;;;4263968;27;20459;-86
2021/12/29 03:17:37;;;;;;;13.40;3.72;;;6.80;99.90;;;;;;4246553;28;20035;-85
2021/12/29 03:19:38;;;;;;;14.18;4.00;;;7.80;99.90;;;;;;4264597;27;20039;-85
2021/12/29 03:21:39;;;;;;;14.27;3.85;;;6.80;99.90;;;;;;4264745;27;20481;-86
2021/12/29 03:23:40;;;;;;;19.70;4.93;;;7.90;99.90;;;;;;4246235;27;20084;-85
2021/12/29 03:25:41;;;;;;;18.13;3.97;;;6.80;99.90;;;;;;4249454;27;20039;-86
2021/12/29 03:27:42;;;;;;;20.40;4.28;;;6.80;99.90;;;;;;4248707;27;20081;-85
2021/12/29 03:29:44;;;;;;;15.57;4.20;;;7.50;99.90;;;;;;4249196;27;20444;-85
2021/12/29 03:31:44;;;;;;;16.98;4.28;;;6.10;99.90;;;;;;4249175;27;20043;-86
2021/12/29 03:33:45;;;;;;;19.13;4.85;;;6.80;99.90;;;;;;4249353;27;20151;-85
2021/12/29 03:35:48;;;;;;;14.63;5.13;;;6.80;99.90;;;;;;4249125;27;20080;-86
2021/12/29 03:37:49;;;;;;;22.08;4.65;;;6.80;99.90;;;;;;4248656;27;20035;-86
2021/12/29 03:39:50;;;;;;;11.95;4.15;;;6.80;99.90;;;;;;4248953;27;20082;-86
2021/12/29 03:41:50;;;;;;;21.20;5.03;;;6.80;99.90;;;;;;4267243;27;20051;-85
2021/12/29 03:43:53;;;;;;;18.65;4.22;;;8.00;99.90;;;;;;4267697;27;20041;-86
2021/12/29 03:45:55;;;;;;;22.48;5.07;;;6.80;99.90;;;;;;4249510;27;20051;-86
2021/12/29 03:47:55;;;;;;;19.33;5.47;;;6.80;99.90;;;;;;4248831;27;20039;-85
2021/12/29 03:49:56;;;;;;;13.32;4.80;;;6.80;99.90;;;;;;4249205;27;20487;-85
2021/12/29 03:51:58;;;;;;;19.00;4.80;;;7.10;99.90;;;;;;4248271;27;20055;-85
2021/12/29 03:54:02;;;;;;;17.15;5.88;;;6.80;99.90;;;;;;4248791;27;20051;-86
2021/12/29 03:56:03;;;;;;;18.58;4.85;;;8.00;99.90;;;;;;4267342;27;20121;-85
2021/12/29 03:58:04;;;;;;;21.75;5.43;;;6.80;99.90;;;;;;4267831;27;20398;-86
2021/12/29 04:00:09;;;;;;;19.20;5.78;;;7.50;99.90;;;;;;4248513;27;20043;-86
2021/12/29 04:02:11;;;;;;;19.42;5.07;;;6.80;99.90;;;;;;4267074;27;20040;-86
2021/12/29 04:04:11;;;;;;;21.48;5.10;;;7.10;99.90;;;;;;4267050;27;20043;-86
2021/12/29 04:06:18;;;;;;;26.77;6.00;;;7.60;99.90;;;;;;4248930;27;20054;-86
2021/12/29 04:08:20;;;;;;;22.17;5.78;;;7.50;99.90;;;;;;4231600;28;20052;-86
2021/12/29 04:10:21;;;;;;;21.92;5.72;;;8.00;99.90;;;;;;4248647;27;20044;-85
2021/12/29 04:12:21;;;;;;;23.70;5.72;;;7.80;99.90;;;;;;4266605;27;20486;-86
2021/12/29 04:14:26;;;;;;;18.50;5.95;;;7.80;99.90;;;;;;4248869;27;20057;-85
2021/12/29 04:16:27;;;;;;;22.83;5.90;;;7.60;99.90;;;;;;4266945;27;20053;-85
2021/12/29 04:18:30;;;;;;;19.35;6.22;;;6.80;99.90;;;;;;4231938;28;20036;-86
2021/12/29 04:22:54;;;;;;;16.05;5.53;;;7.10;99.90;;;;;;4248648;27;20046;-86
2021/12/29 04:24:55;;;;;;;26.60;5.28;;;7.60;99.90;;;;;;4248352;27;20387;-86
2021/12/29 04:26:56;;;;;;;28.58;5.68;;;7.10;99.90;;;;;;4248368;27;20039;-86
2021/12/29 04:28:56;;;;;;;17.75;5.35;;;7.40;99.90;;;;;;4267064;27;20085;-86
2021/12/29 04:31:08;;;;;;;19.13;5.20;;;6.80;99.90;;;;;;4247834;27;20046;-85
2021/12/29 04:33:09;;;;;;;15.10;4.82;;;6.80;99.90;;;;;;4266687;27;20043;-86
2021/12/29 04:35:10;;;;;;;19.25;5.38;;;7.60;99.90;;;;;;4265187;27;20042;-86
2021/12/29 04:37:11;;;;;;;21.13;5.75;;;6.80;99.90;;;;;;4247579;27;20388;-86
2021/12/29 04:39:11;;;;;;;14.77;5.53;;;6.80;99.90;;;;;;4266744;27;20055;-86
2021/12/29 04:41:13;;;;;;;23.27;5.07;;;6.90;99.90;;;;;;4248018;27;20054;-86
2021/12/29 04:43:14;;;;;;;17.98;4.85;;;7.70;99.90;;;;;;4248428;27;20129;-86
2021/12/29 04:45:16;;;;;;;21.90;5.18;;;6.80;99.90;;;;;;4266987;27;20056;-85
2021/12/29 04:47:18;;;;;;;20.88;4.78;;;7.90;99.90;;;;;;4247821;27;20125;-86
2021/12/29 04:49:25;;;;;;;13.80;5.15;;;7.60;99.90;;;;;;4231816;28;20035;-85
2021/12/29 04:51:34;;;;;;;14.90;5.10;;;7.00;99.90;;;;;;4249132;27;20050;-85
2021/12/29 04:53:35;;;;;;;17.05;5.40;;;7.60;99.90;;;;;;4225368;28;20016;-86
2021/12/29 04:55:36;;;;;;;18.85;5.00;;;7.40;99.90;;;;;;4244127;27;20074;-86
2021/12/29 04:57:37;;;;;;;20.60;5.32;;;6.80;99.90;;;;;;4285224;27;20045;-85
2021/12/29 04:59:39;;;;;;;23.20;5.85;;;7.50;99.90;;;;;;4285767;27;20074;-87
2021/12/29 05:01:39;;;;;;;15.95;5.32;;;7.50;99.90;;;;;;4284629;27;20091;-86
2021/12/29 05:03:43;;;;;;;21.58;5.82;;;7.90;99.90;;;;;;4277831;27;20043;-86
2021/12/29 05:08:26;;;;;;;17.52;5.55;;;7.50;99.90;;;;;;4196780;28;20080;-86
2021/12/29 05:10:26;;;;;;;28.50;6.28;;;7.40;99.90;;;;;;4247994;27;20043;-86
2021/12/29 05:12:27;;;;;;;22.25;6.57;;;6.90;99.90;;;;;;4266095;27;20501;-85
2021/12/29 05:14:28;;;;;;;26.52;7.63;;;6.80;99.90;;;;;;4231264;28;20054;-86
2021/12/29 05:16:29;;;;;;;22.33;6.30;;;6.90;99.90;;;;;;4222915;28;20048;-86
2021/12/29 05:18:32;;;;;;;20.13;5.65;;;7.50;99.90;;;;;;4215065;28;20036;-86
2021/12/29 05:20:33;;;;;;;17.60;5.82;;;7.40;99.90;;;;;;4213824;28;20066;-86
2021/12/29 05:22:34;;;;;;;16.65;5.68;;;7.40;99.90;;;;;;4248473;27;20035;-86
2021/12/29 05:24:35;;;;;;;26.10;6.85;;;6.90;99.90;;;;;;4213800;28;20136;-86
2021/12/29 05:26:36;;;;;;;20.63;5.68;;;6.90;99.90;;;;;;4230373;28;20055;-86
2021/12/29 05:28:37;;;;;;;21.15;6.45;;;7.80;99.90;;;;;;4248845;27;20035;-86
2021/12/29 05:30:38;;;;;;;13.23;5.53;;;6.90;99.90;;;;;;4249042;27;20445;-85
2021/12/29 05:32:40;;;;;;;23.58;5.90;;;6.90;99.90;;;;;;4230428;28;20540;-86
2021/12/29 05:34:41;;;;;;;23.08;6.03;;;7.70;99.90;;;;;;4229971;28;20044;-86
2021/12/29 05:36:43;;;;;;;17.80;6.30;;;6.90;99.90;;;;;;4230208;28;20049;-86
2021/12/29 05:38:43;;;;;;;15.25;5.88;;;6.90;99.90;;;;;;4213594;28;20048;-86
2021/12/29 05:40:44;;;;;;;18.42;5.32;;;6.90;99.90;;;;;;4248228;27;20055;-87
2021/12/29 05:42:45;;;;;;;19.73;6.53;;;7.00;99.90;;;;;;4230847;28;20055;-86
2021/12/29 05:44:46;;;;;;;21.80;5.55;;;6.50;99.90;;;;;;4230142;28;20040;-86
2021/12/29 05:46:46;;;;;;;20.60;5.93;;;7.50;99.90;;;;;;4230330;28;20039;-86
2021/12/29 05:48:48;;;;;;;17.42;6.18;;;7.10;99.90;;;;;;4230408;28;20130;-86
2021/12/29 05:50:49;;;;;;;19.23;5.30;;;6.90;99.90;;;;;;4230627;28;20051;-86
2021/12/29 05:52:51;;;;;;;18.45;6.18;;;7.50;99.90;;;;;;4229943;28;20039;-86
2021/12/29 05:54:51;;;;;;;17.38;5.25;;;7.20;99.90;;;;;;4213396;28;20051;-86
2021/12/29 05:56:53;;;;;;;19.02;6.13;;;6.90;99.90;;;;;;4230412;28;20444;-86
2021/12/29 05:58:59;;;;;;;12.93;5.60;;;7.60;99.90;;;;;;4230531;28;20381;-86
2021/12/29 06:01:00;;;;;;;19.75;5.50;;;7.10;99.90;;;;;;4248128;27;20564;-86
2021/12/29 06:03:00;;;;;;;22.27;6.25;;;6.90;99.90;;;;;;4230212;28;20039;-86
2021/12/29 06:05:02;;;;;;;29.38;6.07;;;6.90;99.90;;;;;;4229734;28;20480;-86
2021/12/29 06:07:03;;;;;;;14.70;5.13;;;6.90;99.90;;;;;;4247934;27;20043;-86
2021/12/29 06:09:04;;;;;;;17.35;4.93;;;8.20;99.90;;;;;;4229721;28;20079;-86
2021/12/29 06:11:05;;;;;;;22.65;5.18;;;7.80;99.90;;;;;;4248109;27;20490;-86
2021/12/29 06:13:06;;;;;;;21.98;4.65;;;6.90;99.90;;;;;;4229879;28;20485;-85
2021/12/29 06:15:08;;;;;;;15.63;5.32;;;7.70;99.90;;;;;;4229677;28;20052;-86
2021/12/29 06:17:08;;;;;;;16.88;4.90;;;7.00;99.90;;;;;;4229860;28;20051;-86
2021/12/29 06:19:10;;;;;;;22.17;6.03;;;8.20;99.90;;;;;;4246807;27;20027;-85
2021/12/29 06:21:16;;;;;;;17.45;5.70;;;7.00;99.90;;;;;;4212636;28;20456;-86
2021/12/29 06:23:17;;;;;;;21.55;5.10;;;7.00;99.90;;;;;;4230017;28;20055;-85
2021/12/29 06:25:19;;;;;;;15.32;5.38;;;8.10;99.90;;;;;;4247991;27;20522;-86
2021/12/29 06:27:23;;;;;;;20.95;4.93;;;8.00;99.90;;;;;;4247690;27;20059;-86
2021/12/29 06:29:23;;;;;;;21.73;5.28;;;7.80;99.90;;;;;;4247677;27;20434;-85
2021/12/29 06:31:25;;;;;;;17.75;5.50;;;7.80;99.90;;;;;;4229602;28;20083;-85
2021/12/29 06:33:27;;;;;;;23.95;5.82;;;7.40;99.90;;;;;;4212020;28;20051;-85
2021/12/29 06:35:27;;;;;;;15.13;6.00;;;7.00;99.90;;;;;;4251031;27;20039;-86
2021/12/29 06:37:29;;;;;;;21.27;6.25;;;7.80;99.90;;;;;;4229118;28;20557;-86
2021/12/29 06:39:30;;;;;;;22.50;5.68;;;7.10;99.90;;;;;;4247342;27;20055;-85
2021/12/29 06:41:31;;;;;;;25.50;6.03;;;7.80;99.90;;;;;;4247605;27;20051;-85
2021/12/29 06:43:32;;;;;;;27.92;6.97;;;7.50;99.90;;;;;;4229401;28;20464;-86
2021/12/29 06:45:32;;;;;;;23.63;6.63;;;7.10;99.90;;;;;;4228837;28;20058;-86
2021/12/29 06:47:33;;;;;;;18.08;5.90;;;7.10;99.90;;;;;;4228867;28;20515;-86
2021/12/29 06:49:34;;;;;;;18.95;6.35;;;7.10;99.90;;;;;;4247615;27;20035;-86
2021/12/29 06:51:35;;;;;;;17.80;6.72;;;8.20;99.90;;;;;;4229250;28;20050;-86
2021/12/29 06:53:36;;;;;;;23.88;5.57;;;7.20;99.90;;;;;;4247166;27;20119;-86
2021/12/29 06:55:36;;;;;;;24.02;6.32;;;7.20;99.90;;;;;;4229707;28;20507;-85
2021/12/29 06:57:37;;;;;;;20.08;5.50;;;7.20;99.90;;;;;;4252472;27;20042;-87
2021/12/29 06:59:38;;;;;;;26.50;5.97;;;7.90;99.90;;;;;;4231803;27;20047;-86
2021/12/29 07:01:39;;;;;;;19.27;5.68;;;8.30;99.90;;;;;;4247550;27;20043;-86
2021/12/29 07:03:40;;;;;;;27.80;6.10;;;7.40;99.90;;;;;;4233602;28;20047;-86
2021/12/29 07:05:41;;;;;;;20.08;5.57;;;8.00;99.90;;;;;;4234766;28;20043;-86
2021/12/29 07:07:43;;;;;;;24.30;6.47;;;7.20;99.90;;;;;;4228750;28;20047;-87
2021/12/29 07:09:43;;;;;;;21.15;7.03;;;7.40;99.90;;;;;;4212241;28;20431;-86
2021/12/29 07:11:44;;;;;;;22.08;6.18;;;7.20;99.90;;;;;;4229073;28;20119;-86
2021/12/29 07:13:45;;;;;;;21.75;5.88;;;7.50;99.90;;;;;;4247007;28;20035;-86
2021/12/29 07:15:47;;;;;;;20.85;6.25;;;7.90;99.90;;;;;;4247536;28;20043;-86
2021/12/29 07:17:49;;;;;;;24.83;6.82;;;7.20;99.90;;;;;;4229271;28;20128;-86
2021/12/29 07:19:49;;;;;;;23.40;6.55;;;7.20;99.90;;;;;;4212406;28;20048;-86
2021/12/29 07:21:50;;;;;;;21.33;6.60;;;7.90;99.90;;;;;;4235854;28;20070;-86
2021/12/29 07:23:53;;;;;;;31.02;6.90;;;8.40;99.90;;;;;;4245115;28;20156;-86
2021/12/29 07:25:54;;;;;;;41.67;6.32;;;7.20;99.90;;;;;;4212093;28;20412;-86
2021/12/29 07:27:56;;;;;;;28.45;6.28;;;7.20;99.90;;;;;;4228477;28;20050;-86
2021/12/29 07:29:57;;;;;;;24.83;7.80;;;7.90;99.90;;;;;;4247379;28;20040;-87
2021/12/29 07:32:01;;;;;;;28.10;6.75;;;7.20;99.90;;;;;;4229467;28;20874;-86
2021/12/29 07:34:03;;;;;;;31.23;6.90;;;7.80;99.90;;;;;;4247145;28;20444;-86
2021/12/29 07:36:04;;;;;;;40.88;7.68;;;8.20;99.90;;;;;;4246840;28;20032;-86
2021/12/29 07:38:08;;;;;;;35.60;6.57;;;7.20;99.90;;;;;;4228782;28;20412;-86
2021/12/29 07:40:12;;;;;;;41.17;7.90;;;7.30;99.90;;;;;;4227689;28;20121;-86
2021/12/29 07:42:16;;;;;;;41.53;7.05;;;6.90;99.90;;;;;;4229126;28;20055;-86
2021/12/29 07:44:18;;;;;;;33.28;7.95;;;7.20;99.90;;;;;;4229054;28;20097;-86
2021/12/29 07:46:19;;;;;;;31.17;7.00;;;7.20;99.90;;;;;;4228841;28;20052;-86
2021/12/29 07:48:25;;;;;;;30.05;5.95;;;7.70;99.90;;;;;;4228935;28;20061;-86
2021/12/29 07:50:27;;;;;;;38.03;6.20;;;7.20;99.90;;;;;;4228986;28;20050;-86
2021/12/29 07:52:28;;;;;;;23.10;5.78;;;7.20;99.90;;;;;;4229310;28;20043;-86
2021/12/29 07:54:29;;;;;;;29.75;7.10;;;7.20;99.90;;;;;;4228981;28;20064;-85
2021/12/29 07:56:29;;;;;;;25.15;6.22;;;7.80;99.90;;;;;;4229133;28;20522;-85
2021/12/29 07:58:30;;;;;;;27.63;7.43;;;7.20;99.90;;;;;;4211931;28;20044;-85
2021/12/29 08:00:37;;;;;;;29.30;6.25;;;7.20;99.90;;;;;;4230395;28;20519;-85
2021/12/29 08:02:38;;;;;;;30.05;6.75;;;7.20;99.90;;;;;;4248144;28;20411;-84
2021/12/29 08:04:39;;;;;;;27.00;6.57;;;8.20;99.90;;;;;;4228745;28;20052;-83
2021/12/29 08:06:40;;;;;;;26.42;6.35;;;7.30;99.90;;;;;;4246836;28;20047;-83
2021/12/29 08:08:41;;;;;;;27.40;5.65;;;7.30;99.90;;;;;;4247107;28;20036;-84
2021/12/29 08:10:42;;;;;;;26.45;7.00;;;8.20;99.90;;;;;;4213854;28;20060;-84
2021/12/29 08:12:43;;;;;;;27.73;6.15;;;7.30;99.90;;;;;;4233250;28;20051;-85
2021/12/29 08:14:48;;;;;;;22.73;6.15;;;7.60;99.90;;;;;;4226200;28;20036;-85
2021/12/29 08:16:49;;;;;;;26.83;6.55;;;7.30;99.90;;;;;;4215143;28;20511;-85
2021/12/29 08:18:52;;;;;;;30.45;6.38;;;8.00;99.90;;;;;;4250363;27;20039;-85
2021/12/29 08:20:53;;;;;;;39.30;6.80;;;7.50;99.90;;;;;;4249469;27;20043;-85
2021/12/29 08:22:54;;;;;;;29.10;6.47;;;8.50;99.90;;;;;;4251576;27;20117;-85
2021/12/29 08:24:55;;;;;;;29.33;6.63;;;8.00;99.90;;;;;;4233971;28;20515;-85
2021/12/29 08:26:56;;;;;;;25.98;5.95;;;7.30;99.90;;;;;;4235015;28;20044;-85
2021/12/29 08:28:58;;;;;;;28.45;5.55;;;7.90;99.90;;;;;;4251443;27;20125;-85
2021/12/29 08:30:59;;;;;;;20.35;5.22;;;8.50;99.90;;;;;;4251771;27;20074;-85
2021/12/29 08:33:00;;;;;;;23.13;5.65;;;7.40;99.90;;;;;;4216394;28;20040;-85
2021/12/29 08:35:00;;;;;;;25.23;5.95;;;7.50;99.90;;;;;;4215768;28;20468;-85
2021/12/29 08:37:01;;;;;;;24.10;5.78;;;7.40;99.90;;;;;;4231908;28;20043;-85
2021/12/29 08:39:03;;;;;;;31.95;6.28;;;7.40;99.90;;;;;;4231316;28;20047;-85
2021/12/29 08:41:04;;;;;;;30.70;6.32;;;8.50;99.90;;;;;;4249927;27;20087;-85
2021/12/29 08:43:05;;;;;;;24.50;5.70;;;7.40;99.90;;;;;;4231607;28;20510;-85
2021/12/29 08:45:09;;;;;;;17.08;5.63;;;8.00;99.90;;;;;;4231771;28;20054;-85
2021/12/29 08:47:10;;;;;;;24.20;6.35;;;7.40;99.90;;;;;;4231757;28;20495;-85
2021/12/29 08:49:10;;;;;;;18.85;5.47;;;7.80;99.90;;;;;;4249839;27;20104;-85
2021/12/29 08:51:11;;;;;;;18.42;5.30;;;7.60;99.90;;;;;;4216956;28;20083;-85
2021/12/29 08:53:13;;;;;;;12.32;4.55;;;8.40;99.90;;;;;;4231093;28;20503;-85
2021/12/29 08:55:14;;;;;;;20.73;5.43;;;7.50;99.90;;;;;;4231061;28;20086;-85
2021/12/29 08:57:16;;;;;;;16.98;4.88;;;7.80;99.90;;;;;;4230896;28;20040;-85
2021/12/29 08:59:17;;;;;;;20.48;5.93;;;7.50;99.90;;;;;;4214073;28;20049;-85
2021/12/29 09:01:20;;;;;;;20.83;5.78;;;7.50;99.90;;;;;;4215959;28;20131;-85
2021/12/29 09:03:21;;;;;;;15.60;4.68;;;7.50;99.90;;;;;;4235733;28;20539;-85
2021/12/29 09:05:22;;;;;;;26.10;5.72;;;7.70;99.90;;;;;;4231758;28;20054;-85
2021/12/29 09:07:23;;;;;;;22.80;5.65;;;7.50;99.90;;;;;;4231382;28;20048;-85
2021/12/29 09:09:23;;;;;;;31.63;6.20;;;7.50;99.90;;;;;;4251943;27;20046;-85
2021/12/29 09:11:24;;;;;;;28.98;6.25;;;7.50;99.90;;;;;;4230830;28;20075;-85
2021/12/29 09:13:25;;;;;;;25.13;5.43;;;8.50;99.90;;;;;;4249124;27;20043;-85
2021/12/29 09:15:26;;;;;;;39.70;6.03;;;8.00;99.90;;;;;;4248599;27;20548;-85
2021/12/29 09:17:27;;;;;;;27.17;6.75;;;7.50;99.90;;;;;;4231039;28;20051;-85
2021/12/29 09:19:30;;;;;;;28.50;6.13;;;7.90;99.90;;;;;;4248919;27;20088;-85
2021/12/29 09:21:33;;;;;;;32.70;6.18;;;8.60;99.90;;;;;;4248463;27;20055;-85
2021/12/29 09:23:34;;;;;;;24.85;6.10;;;7.50;99.90;;;;;;4249133;27;20514;-85
2021/12/29 09:25:38;;;;;;;37.85;6.03;;;8.30;99.90;;;;;;4214002;28;20092;-85
2021/12/29 09:27:39;;;;;;;20.92;5.97;;;7.60;99.90;;;;;;4230693;28;20039;-85
2021/12/29 09:29:40;;;;;;;16.38;5.05;;;7.60;99.90;;;;;;4213096;28;20055;-85
2021/12/29 09:31:41;;;;;;;22.73;5.80;;;7.30;99.90;;;;;;4248827;27;20082;-84
2021/12/29 09:33:43;;;;;;;30.98;5.70;;;8.60;99.90;;;;;;4213582;28;20040;-85
2021/12/29 09:35:47;;;;;;;23.63;6.00;;;7.80;99.90;;;;;;4248699;27;20046;-85
2021/12/29 09:37:48;;;;;;;24.77;5.53;;;7.60;99.90;;;;;;4248670;27;20495;-85
2021/12/29 09:39:48;;;;;;;27.38;4.97;;;7.70;99.90;;;;;;4229341;28;20051;-84
2021/12/29 09:41:51;;;;;;;18.20;5.65;;;8.20;99.90;;;;;;4230150;28;20119;-85
2021/12/29 09:43:53;;;;;;;26.17;5.30;;;7.60;99.90;;;;;;4213719;28;20060;-85
2021/12/29 09:45:55;;;;;;;26.52;5.30;;;8.30;99.90;;;;;;4230354;28;20063;-85
2021/12/29 09:47:57;;;;;;;20.70;5.55;;;7.60;99.90;;;;;;4231679;28;20157;-85
2021/12/29 09:49:58;;;;;;;19.35;4.18;;;7.70;99.90;;;;;;4231126;28;20039;-85
2021/12/29 09:51:58;;;;;;;20.73;4.60;;;7.70;99.90;;;;;;4213327;28;20044;-85
2021/12/29 09:53:59;;;;;;;21.90;4.40;;;7.70;99.90;;;;;;4230223;28;20047;-85
2021/12/29 09:56:01;;;;;;;21.10;4.57;;;7.70;99.90;;;;;;4232089;28;20056;-85
2021/12/29 09:58:04;;;;;;;18.08;4.88;;;7.70;99.90;;;;;;4231522;28;20730;-85
2021/12/29 10:00:33;;;;;;;21.05;4.57;;;8.50;99.90;;;;;;4231417;28;20047;-86
2021/12/29 10:02:36;;;;;;;;;;;8.00;99.90;;;;;;4229235;28;20473;-84
2021/12/29 10:04:37;;;;;;;19.63;4.75;;;7.70;99.90;;;;;;4231475;28;19920;-85
2021/12/29 10:06:39;;;;;;;16.75;4.05;;;8.00;99.90;;;;;;4231386;28;20131;-85
2021/12/29 10:08:47;;;;;;;17.90;4.00;;;7.80;99.90;;;;;;4229976;28;20168;-85
2021/12/29 10:10:53;;;;;;;23.52;4.75;;;7.70;99.90;;;;;;4229966;28;20126;-85
2021/12/29 10:12:55;;;;;;;17.88;4.40;;;8.00;99.90;;;;;;4231776;28;20074;-85
2021/12/29 10:14:59;;;;;;;20.92;4.57;;;8.20;99.90;;;;;;4229266;28;20519;-85
2021/12/29 10:17:00;;;;;;;23.35;4.35;;;8.30;99.90;;;;;;4229806;28;20127;-85
2021/12/29 10:19:10;;;;;;;15.60;4.20;;;8.70;99.90;;;;;;4231467;28;20062;-86
2021/12/29 10:21:17;;;;;;;17.23;4.38;;;7.80;99.90;;;;;;4229619;28;20471;-86
2021/12/29 10:23:25;;;;;;;18.45;4.40;;;8.00;99.90;;;;;;4231321;28;20044;-85
2021/12/29 10:25:26;;;;;;;22.38;5.00;;;7.90;99.90;;;;;;4212977;28;20504;-84
2021/12/29 10:27:30;;;;;;;18.85;4.50;;;7.90;99.90;;;;;;4229640;28;20071;-85
2021/12/29 10:29:31;;;;;;;18.30;3.45;;;8.00;99.90;;;;;;4229489;28;20079;-85
2021/12/29 10:31:56;;;;;;;12.90;4.03;;;8.00;99.90;;;;;;4230939;28;20051;-85
2021/12/29 10:34:00;;;;;;;14.07;3.70;;;8.00;99.90;;;;;;4232194;28;20039;-85
2021/12/29 10:36:22;;;;;;;18.83;4.80;;;8.50;99.90;;;;;;4230493;28;20112;-84
2021/12/29 10:38:27;;;;;;;20.33;4.32;;;8.00;99.90;;;;;;4231262;28;20043;-85
2021/12/29 10:40:34;;;;;;;16.42;3.78;;;8.00;99.90;;;;;;4229661;28;20133;-86
2021/12/29 10:42:35;;;;;;;15.70;4.65;;;8.80;99.90;;;;;;4212565;28;20109;-85
2021/12/29 10:44:50;;;;;;;11.98;3.70;;;8.40;99.90;;;;;;4231711;28;20151;-85